Time;durP1;ratioP1;P1;durP2;ratioP2;P2;SDS_P1;SDS_P2;PMS_P1;PMS_P2;Temp;Humidity;BMP_temperature;BMP_pressure;BME280_temperature;BME280_humidity;BME280_pressure;Samples;Min_cycle;Max_cycle;Signal;HPM_P1;HPM_P2
2023/12/10 00:00:27;;;;;;;32.67;5.05;;;;;;;;;;5030018;28;20052;-77
2023/12/10 00:02:53;;;;;;;43.53;5.75;;;;;;;;;;5028139;28;20030;-76
2023/12/10 00:05:19;;;;;;;39.17;5.18;;;;;;;;;;5013250;28;20061;-79
2023/12/10 00:07:46;;;;;;;39.25;7.00;;;;;;;;;;5030148;28;20048;-77
2023/12/10 00:10:12;;;;;;;49.15;7.47;;;;;;;;;;5013346;28;20053;-77
2023/12/10 00:12:39;;;;;;;41.25;8.07;;;;;;;;;;5009746;28;20045;-77
2023/12/10 00:15:05;;;;;;;46.60;7.82;;;;;;;;;;5029403;28;20037;-76
2023/12/10 00:17:31;;;;;;;47.30;6.72;;;;;;;;;;5031458;28;20033;-76
2023/12/10 00:19:57;;;;;;;46.22;7.50;;;;;;;;;;5012468;28;20029;-77
2023/12/10 00:22:23;;;;;;;45.33;7.97;;;;;;;;;;5028290;28;20261;-77
2023/12/10 00:24:50;;;;;;;32.97;5.38;;;;;;;;;;5029184;28;20033;-78
2023/12/10 00:27:16;;;;;;;45.90;7.75;;;;;;;;;;5013412;28;20041;-78
2023/12/10 00:29:42;;;;;;;52.55;9.13;;;;;;;;;;5028818;28;20034;-79
2023/12/10 00:32:08;;;;;;;57.45;7.88;;;;;;;;;;5030739;28;20045;-77
2023/12/10 00:34:34;;;;;;;46.90;7.13;;;;;;;;;;5030486;28;20563;-77
2023/12/10 00:37:01;;;;;;;49.70;7.97;;;;;;;;;;5028798;28;20040;-77
2023/12/10 00:39:28;;;;;;;47.75;7.38;;;;;;;;;;5028356;28;20029;-78
2023/12/10 00:41:54;;;;;;;43.08;7.65;;;;;;;;;;5029343;28;20054;-77
2023/12/10 00:44:21;;;;;;;56.15;8.57;;;;;;;;;;5029826;28;20053;-77
2023/12/10 00:46:47;;;;;;;53.80;8.77;;;;;;;;;;5030866;28;20045;-79
2023/12/10 00:49:13;;;;;;;57.17;10.60;;;;;;;;;;5032815;28;20048;-77
2023/12/10 00:51:39;;;;;;;54.42;8.60;;;;;;;;;;5014389;28;20525;-77
2023/12/10 00:54:06;;;;;;;55.10;9.02;;;;;;;;;;5000590;28;20022;-77
2023/12/10 00:56:33;;;;;;;53.28;7.25;;;;;;;;;;5031783;28;20017;-77
2023/12/10 00:59:01;;;;;;;47.30;7.78;;;;;;;;;;5031750;28;20095;-79
2023/12/10 01:01:27;;;;;;;54.40;6.53;;;;;;;;;;5029782;28;20121;-79
2023/12/10 01:03:53;;;;;;;44.42;8.60;;;;;;;;;;5012095;28;20029;-77
2023/12/10 01:06:19;;;;;;;51.25;8.23;;;;;;;;;;5034771;28;20059;-77
2023/12/10 01:08:46;;;;;;;50.15;7.60;;;;;;;;;;5012867;28;20067;-78
2023/12/10 01:11:12;;;;;;;52.60;8.00;;;;;;;;;;5012259;28;20029;-79
2023/12/10 01:13:38;;;;;;;44.80;7.65;;;;;;;;;;5028632;28;20569;-78
2023/12/10 01:16:04;;;;;;;40.85;6.03;;;;;;;;;;5029956;28;20033;-76
2023/12/10 01:18:34;;;;;;;46.65;6.78;;;;;;;;;;5029598;28;20037;-80
2023/12/10 01:21:02;;;;;;;53.30;8.80;;;;;;;;;;5026075;28;20022;-77
2023/12/10 01:23:28;;;;;;;40.85;5.75;;;;;;;;;;5028928;28;20021;-80
2023/12/10 01:25:55;;;;;;;38.88;7.65;;;;;;;;;;4996065;28;20281;-78
2023/12/10 01:28:21;;;;;;;48.10;7.47;;;;;;;;;;4996197;28;20033;-77
2023/12/10 01:30:48;;;;;;;36.33;7.93;;;;;;;;;;5029373;28;20584;-78
2023/12/10 01:33:15;;;;;;;46.30;6.35;;;;;;;;;;5029748;28;20033;-76
2023/12/10 01:35:41;;;;;;;39.00;6.85;;;;;;;;;;5029328;28;20445;-77
2023/12/10 01:38:07;;;;;;;48.78;7.43;;;;;;;;;;5027944;28;20033;-79
2023/12/10 01:40:33;;;;;;;46.40;7.07;;;;;;;;;;5011803;28;20018;-78
2023/12/10 01:43:05;;;;;;;40.30;5.93;;;;;;;;;;5028983;28;20456;-76
2023/12/10 01:45:31;;;;;;;42.75;5.85;;;;;;;;;;5028953;28;20061;-80
2023/12/10 01:47:58;;;;;;;43.53;7.47;;;;;;;;;;5027200;28;20033;-77
2023/12/10 01:50:24;;;;;;;49.00;6.03;;;;;;;;;;5028777;28;20041;-77
2023/12/10 01:52:50;;;;;;;46.83;7.13;;;;;;;;;;5028146;28;20037;-78
2023/12/10 01:55:17;;;;;;;48.47;7.97;;;;;;;;;;5027373;28;20037;-78
2023/12/10 01:57:43;;;;;;;44.83;6.05;;;;;;;;;;5028219;28;20044;-78
2023/12/10 02:00:10;;;;;;;36.72;6.18;;;;;;;;;;5026599;28;20041;-78
2023/12/10 02:02:39;;;;;;;40.90;6.35;;;;;;;;;;5028294;28;20059;-78
2023/12/10 02:05:06;;;;;;;49.53;6.00;;;;;;;;;;5009711;28;20034;-78
2023/12/10 02:07:33;;;;;;;47.25;6.13;;;;;;;;;;5028161;28;20033;-79
2023/12/10 02:09:59;;;;;;;49.58;6.75;;;;;;;;;;5009492;28;20053;-77
2023/12/10 02:12:27;;;;;;;49.20;7.95;;;;;;;;;;5027335;28;20029;-79
2023/12/10 02:14:54;;;;;;;43.08;5.97;;;;;;;;;;5024200;28;20025;-76
2023/12/10 02:17:22;;;;;;;45.70;6.20;;;;;;;;;;5010547;28;20456;-78
2023/12/10 02:19:49;;;;;;;45.63;6.00;;;;;;;;;;5008995;28;20025;-79
2023/12/10 02:22:18;;;;;;;44.67;7.35;;;;;;;;;;5027073;28;20029;-78
2023/12/10 02:24:51;;;;;;;54.35;7.68;;;;;;;;;;5027118;28;20033;-78
2023/12/10 02:27:18;;;;;;;48.42;7.55;;;;;;;;;;5027408;28;20091;-77
2023/12/10 02:29:46;;;;;;;51.08;7.40;;;;;;;;;;5028617;28;20120;-77
2023/12/10 02:32:13;;;;;;;48.88;7.50;;;;;;;;;;5027908;28;20095;-79
2023/12/10 02:34:39;;;;;;;62.92;9.02;;;;;;;;;;5028085;28;20068;-77
2023/12/10 02:37:05;;;;;;;53.72;7.03;;;;;;;;;;5028057;28;20021;-80
2023/12/10 02:39:31;;;;;;;54.25;8.05;;;;;;;;;;5028027;28;20025;-77
2023/12/10 02:41:58;;;;;;;50.22;7.10;;;;;;;;;;5025953;28;20034;-76
2023/12/10 02:44:24;;;;;;;59.92;8.38;;;;;;;;;;5007795;28;20037;-78
2023/12/10 02:46:50;;;;;;;59.60;10.20;;;;;;;;;;5011301;28;20033;-77
2023/12/10 02:49:16;;;;;;;62.50;7.82;;;;;;;;;;5027666;28;20041;-78
2023/12/10 02:51:42;;;;;;;52.75;7.82;;;;;;;;;;5028226;28;20167;-79
2023/12/10 02:54:09;;;;;;;54.20;8.35;;;;;;;;;;5007442;28;20083;-78
2023/12/10 02:56:35;;;;;;;61.30;7.90;;;;;;;;;;5026054;28;20029;-77
2023/12/10 02:59:01;;;;;;;52.70;9.07;;;;;;;;;;5027278;28;20030;-77
2023/12/10 03:01:27;;;;;;;60.05;7.72;;;;;;;;;;5009407;28;20471;-79
2023/12/10 03:03:54;;;;;;;54.03;8.63;;;;;;;;;;5027124;28;20030;-79
2023/12/10 03:06:20;;;;;;;59.25;7.85;;;;;;;;;;5012890;28;20033;-78
2023/12/10 03:08:46;;;;;;;60.13;8.60;;;;;;;;;;5012917;28;20045;-79
2023/12/10 03:11:12;;;;;;;54.20;7.68;;;;;;;;;;5031177;28;20036;-77
2023/12/10 03:13:39;;;;;;;51.50;6.75;;;;;;;;;;5029384;28;20047;-78
2023/12/10 03:16:05;;;;;;;49.63;8.70;;;;;;;;;;5029570;28;20068;-80
2023/12/10 03:18:31;;;;;;;60.17;8.18;;;;;;;;;;5013239;28;20029;-77
2023/12/10 03:20:57;;;;;;;63.72;7.85;;;;;;;;;;5030297;28;20099;-77
2023/12/10 03:23:24;;;;;;;58.72;7.65;;;;;;;;;;5013648;28;20037;-80
2023/12/10 03:25:50;;;;;;;62.70;7.57;;;;;;;;;;5031984;28;20041;-77
2023/12/10 03:28:16;;;;;;;48.55;7.40;;;;;;;;;;5031814;28;20029;-77
2023/12/10 03:30:42;;;;;;;61.92;7.95;;;;;;;;;;5035698;28;20120;-76
2023/12/10 03:33:08;;;;;;;53.33;8.20;;;;;;;;;;5029745;28;20513;-77
2023/12/10 03:35:34;;;;;;;55.80;9.05;;;;;;;;;;5031311;28;20034;-77
2023/12/10 03:38:00;;;;;;;52.03;8.32;;;;;;;;;;5028659;28;20040;-77
2023/12/10 03:40:27;;;;;;;54.60;9.15;;;;;;;;;;5031328;28;20492;-78
2023/12/10 03:42:53;;;;;;;54.58;7.03;;;;;;;;;;5030672;28;20049;-76
2023/12/10 03:45:19;;;;;;;52.50;8.30;;;;;;;;;;5031455;28;20026;-76
2023/12/10 03:47:46;;;;;;;54.40;7.25;;;;;;;;;;5028067;28;20044;-79
2023/12/10 03:50:13;;;;;;;43.65;7.20;;;;;;;;;;5030578;28;20033;-78
2023/12/10 03:52:40;;;;;;;66.13;8.18;;;;;;;;;;5030115;28;20482;-78
2023/12/10 03:55:06;;;;;;;49.97;6.68;;;;;;;;;;5030953;28;20025;-76
2023/12/10 03:57:32;;;;;;;55.80;7.80;;;;;;;;;;5029803;28;20045;-76
2023/12/10 03:59:58;;;;;;;50.08;8.65;;;;;;;;;;5030956;28;20037;-79
2023/12/10 04:02:25;;;;;;;53.63;7.68;;;;;;;;;;5028940;28;20030;-78
2023/12/10 04:04:51;;;;;;;65.38;8.35;;;;;;;;;;5033618;28;20049;-76
2023/12/10 04:07:17;;;;;;;52.97;6.55;;;;;;;;;;5035910;28;20037;-77
2023/12/10 04:09:43;;;;;;;53.78;7.30;;;;;;;;;;5023707;28;20053;-78
2023/12/10 04:12:09;;;;;;;53.97;8.43;;;;;;;;;;5035640;28;20079;-76
2023/12/10 04:14:35;;;;;;;54.80;8.50;;;;;;;;;;5029973;28;20120;-77
2023/12/10 04:17:04;;;;;;;55.88;7.78;;;;;;;;;;5030013;28;20030;-78
2023/12/10 04:19:30;;;;;;;55.58;8.40;;;;;;;;;;5031373;28;20045;-77
2023/12/10 04:21:57;;;;;;;56.17;8.35;;;;;;;;;;5012635;28;20034;-77
2023/12/10 04:24:26;;;;;;;57.63;8.45;;;;;;;;;;5013258;28;20029;-78
2023/12/10 04:26:52;;;;;;;52.03;7.20;;;;;;;;;;5012030;28;20164;-79
2023/12/10 04:29:18;;;;;;;47.05;8.88;;;;;;;;;;5028042;28;20351;-78
2023/12/10 04:31:45;;;;;;;51.47;7.82;;;;;;;;;;5031126;28;20688;-79
2023/12/10 04:34:12;;;;;;;62.30;7.95;;;;;;;;;;5008553;28;20033;-77
2023/12/10 04:36:38;;;;;;;54.85;7.97;;;;;;;;;;5009129;28;20491;-77
2023/12/10 04:39:04;;;;;;;51.47;6.43;;;;;;;;;;5029618;28;20437;-79
2023/12/10 04:41:30;;;;;;;54.10;7.32;;;;;;;;;;5030205;28;20041;-75
2023/12/10 04:43:56;;;;;;;44.13;6.05;;;;;;;;;;5011463;28;20513;-78
2023/12/10 04:46:23;;;;;;;43.13;6.80;;;;;;;;;;5030157;28;20029;-76
2023/12/10 04:48:49;;;;;;;56.13;7.07;;;;;;;;;;5029493;28;20033;-77
2023/12/10 04:51:15;;;;;;;46.72;7.35;;;;;;;;;;5030549;28;20017;-81
2023/12/10 04:53:41;;;;;;;43.80;6.60;;;;;;;;;;5009876;28;20037;-76
2023/12/10 04:56:08;;;;;;;52.75;7.13;;;;;;;;;;5027346;28;20040;-79
2023/12/10 04:58:34;;;;;;;38.92;6.45;;;;;;;;;;5030109;28;20120;-78
2023/12/10 05:01:02;;;;;;;41.67;6.30;;;;;;;;;;5012195;28;20059;-78
2023/12/10 05:03:29;;;;;;;42.72;6.40;;;;;;;;;;5029181;28;20029;-79
2023/12/10 05:05:55;;;;;;;46.00;5.85;;;;;;;;;;5029498;28;20467;-77
2023/12/10 05:08:21;;;;;;;39.00;6.65;;;;;;;;;;5029607;28;20041;-77
2023/12/10 05:10:47;;;;;;;48.05;6.32;;;;;;;;;;5029603;28;20037;-79
2023/12/10 05:13:14;;;;;;;46.25;6.72;;;;;;;;;;5010874;28;20037;-77
2023/12/10 05:15:40;;;;;;;37.72;5.50;;;;;;;;;;5028320;28;20067;-77
2023/12/10 05:18:06;;;;;;;36.42;5.95;;;;;;;;;;5028782;28;20056;-79
2023/12/10 05:20:32;;;;;;;42.35;6.63;;;;;;;;;;5010925;28;20038;-78
2023/12/10 05:22:59;;;;;;;49.72;7.65;;;;;;;;;;5010069;28;20037;-79
2023/12/10 05:25:29;;;;;;;50.53;6.88;;;;;;;;;;5029536;28;20068;-80
2023/12/10 05:27:55;;;;;;;37.05;5.88;;;;;;;;;;5026413;28;20398;-79
2023/12/10 05:30:22;;;;;;;39.88;7.38;;;;;;;;;;5029727;28;20435;-80
2023/12/10 05:32:48;;;;;;;46.00;7.05;;;;;;;;;;5029639;28;20121;-78
2023/12/10 05:35:15;;;;;;;38.08;5.88;;;;;;;;;;5028405;28;20489;-78
2023/12/10 05:37:41;;;;;;;32.08;5.32;;;;;;;;;;5029351;28;20513;-78
2023/12/10 05:40:08;;;;;;;34.00;5.43;;;;;;;;;;5008767;28;20037;-77
2023/12/10 05:42:35;;;;;;;40.40;6.18;;;;;;;;;;5029849;28;20052;-76
2023/12/10 05:45:02;;;;;;;41.25;6.07;;;;;;;;;;5010266;28;20040;-77
2023/12/10 05:47:28;;;;;;;35.15;4.97;;;;;;;;;;5029828;28;20029;-77
2023/12/10 05:49:54;;;;;;;44.30;7.43;;;;;;;;;;5029250;28;20059;-76
2023/12/10 05:52:20;;;;;;;38.00;6.70;;;;;;;;;;5029112;28;20112;-77
2023/12/10 05:54:46;;;;;;;42.58;6.78;;;;;;;;;;5027781;28;20033;-76
2023/12/10 05:57:13;;;;;;;39.50;6.32;;;;;;;;;;5027834;28;20132;-77
2023/12/10 05:59:39;;;;;;;43.80;6.82;;;;;;;;;;5029178;28;20037;-78
2023/12/10 06:02:05;;;;;;;45.20;5.93;;;;;;;;;;5027549;28;20220;-77
2023/12/10 06:04:31;;;;;;;40.95;6.38;;;;;;;;;;5008831;28;20030;-77
2023/12/10 06:06:57;;;;;;;38.88;6.88;;;;;;;;;;5027883;28;20037;-76
2023/12/10 06:09:25;;;;;;;42.38;6.60;;;;;;;;;;5027272;28;20041;-77
2023/12/10 06:11:53;;;;;;;40.08;7.72;;;;;;;;;;5027266;28;20121;-80
2023/12/10 06:14:19;;;;;;;45.25;5.78;;;;;;;;;;5024978;28;20033;-78
2023/12/10 06:16:46;;;;;;;51.03;7.15;;;;;;;;;;5027494;28;20120;-77
2023/12/10 06:19:12;;;;;;;45.03;5.97;;;;;;;;;;5028649;28;20026;-77
2023/12/10 06:21:38;;;;;;;39.20;6.07;;;;;;;;;;5027163;28;20021;-76
2023/12/10 06:24:05;;;;;;;44.40;6.30;;;;;;;;;;5008336;28;20033;-78
2023/12/10 06:26:31;;;;;;;43.53;6.18;;;;;;;;;;5028735;28;20116;-77
2023/12/10 06:28:57;;;;;;;39.30;7.30;;;;;;;;;;5027967;28;20029;-77
2023/12/10 06:31:24;;;;;;;38.35;7.35;;;;;;;;;;5009679;28;20048;-77
2023/12/10 06:33:50;;;;;;;42.53;5.97;;;;;;;;;;5010943;28;20040;-76
2023/12/10 06:36:16;;;;;;;37.63;5.80;;;;;;;;;;5027868;28;20045;-77
2023/12/10 06:38:43;;;;;;;38.78;6.50;;;;;;;;;;5009447;28;20293;-78
2023/12/10 06:41:10;;;;;;;44.28;5.45;;;;;;;;;;5025896;28;20113;-75
2023/12/10 06:43:36;;;;;;;48.45;5.65;;;;;;;;;;5026417;28;20753;-78
2023/12/10 06:46:02;;;;;;;44.78;7.68;;;;;;;;;;5028090;28;20029;-76
2023/12/10 06:48:29;;;;;;;46.67;7.50;;;;;;;;;;5010289;28;20033;-77
2023/12/10 06:50:56;;;;;;;47.67;6.80;;;;;;;;;;5027180;28;20026;-77
2023/12/10 06:53:22;;;;;;;49.60;6.25;;;;;;;;;;5027924;28;20113;-77
2023/12/10 06:55:49;;;;;;;49.85;7.20;;;;;;;;;;5010451;28;20030;-77
2023/12/10 06:58:16;;;;;;;39.25;6.65;;;;;;;;;;5027151;28;20040;-77
2023/12/10 07:00:42;;;;;;;43.97;6.25;;;;;;;;;;5027392;28;20120;-76
2023/12/10 07:03:08;;;;;;;49.15;7.60;;;;;;;;;;5026536;28;20029;-77
2023/12/10 07:05:34;;;;;;;41.75;6.15;;;;;;;;;;5026602;28;20049;-77
2023/12/10 07:08:01;;;;;;;44.42;6.60;;;;;;;;;;5010638;28;20112;-77
2023/12/10 07:10:28;;;;;;;46.97;5.93;;;;;;;;;;5026584;28;20044;-76
2023/12/10 07:12:54;;;;;;;40.30;5.50;;;;;;;;;;5028891;28;20045;-77
2023/12/10 07:15:21;;;;;;;32.90;5.32;;;;;;;;;;5026283;28;20026;-76
2023/12/10 07:17:47;;;;;;;30.80;5.07;;;;;;;;;;5027162;28;21099;-78
2023/12/10 07:20:13;;;;;;;43.47;8.00;;;;;;;;;;5025239;28;20048;-78
2023/12/10 07:22:41;;;;;;;40.05;5.93;;;;;;;;;;5030684;28;20022;-77
2023/12/10 07:25:07;;;;;;;47.42;7.47;;;;;;;;;;5011787;28;20136;-75
2023/12/10 07:27:33;;;;;;;44.58;8.35;;;;;;;;;;5027897;28;20044;-77
2023/12/10 07:30:00;;;;;;;39.80;6.35;;;;;;;;;;5026256;28;20433;-77
2023/12/10 07:32:27;;;;;;;39.80;6.55;;;;;;;;;;5023492;28;20443;-76
2023/12/10 07:34:53;;;;;;;43.47;7.15;;;;;;;;;;5026420;28;20048;-76
2023/12/10 07:37:19;;;;;;;39.58;5.80;;;;;;;;;;5007289;28;20040;-76
2023/12/10 07:39:46;;;;;;;36.45;5.95;;;;;;;;;;5025911;28;20053;-76
2023/12/10 07:42:12;;;;;;;44.88;6.20;;;;;;;;;;5007507;28;20502;-77
2023/12/10 07:44:38;;;;;;;39.63;6.15;;;;;;;;;;5026149;28;20050;-76
2023/12/10 07:47:04;;;;;;;37.75;6.50;;;;;;;;;;5025909;28;20136;-78
2023/12/10 07:49:32;;;;;;;37.22;5.55;;;;;;;;;;5028120;28;20032;-78
2023/12/10 07:51:58;;;;;;;40.08;6.85;;;;;;;;;;5028440;28;20029;-77
2023/12/10 07:54:24;;;;;;;48.35;5.57;;;;;;;;;;5018137;28;20771;-79
2023/12/10 07:56:50;;;;;;;38.22;5.85;;;;;;;;;;5031055;28;20112;-77
2023/12/10 07:59:18;;;;;;;33.03;4.28;;;;;;;;;;5013914;28;20026;-77
2023/12/10 08:01:44;;;;;;;33.15;6.05;;;;;;;;;;5031361;28;20021;-76
2023/12/10 08:04:11;;;;;;;35.92;6.68;;;;;;;;;;5013216;28;20437;-76
2023/12/10 08:06:37;;;;;;;37.30;6.72;;;;;;;;;;5031065;28;20041;-76
2023/12/10 08:09:06;;;;;;;33.75;5.53;;;;;;;;;;5030788;28;20072;-77
2023/12/10 08:11:32;;;;;;;32.05;5.63;;;;;;;;;;5029671;28;20113;-77
2023/12/10 08:13:59;;;;;;;43.03;5.57;;;;;;;;;;5030038;28;20056;-77
2023/12/10 08:16:25;;;;;;;47.25;6.30;;;;;;;;;;5030437;28;20030;-76
2023/12/10 08:18:51;;;;;;;37.47;5.55;;;;;;;;;;5029420;28;20029;-74
2023/12/10 08:21:17;;;;;;;43.75;6.22;;;;;;;;;;5029820;28;20107;-76
2023/12/10 08:23:44;;;;;;;35.03;6.07;;;;;;;;;;5030212;28;20109;-76
2023/12/10 08:26:11;;;;;;;46.17;7.30;;;;;;;;;;5030428;28;20042;-76
2023/12/10 08:28:37;;;;;;;40.95;6.50;;;;;;;;;;5028695;28;20130;-77
2023/12/10 08:31:03;;;;;;;45.10;6.45;;;;;;;;;;5011512;28;20029;-77
2023/12/10 08:33:29;;;;;;;36.22;5.57;;;;;;;;;;5030204;28;20088;-78
2023/12/10 08:35:56;;;;;;;39.35;5.85;;;;;;;;;;4994070;28;20438;-76
2023/12/10 08:38:22;;;;;;;34.17;5.53;;;;;;;;;;5031201;28;20029;-75
2023/12/10 08:40:49;;;;;;;36.65;5.65;;;;;;;;;;5028005;28;20029;-76
2023/12/10 08:43:17;;;;;;;39.35;5.97;;;;;;;;;;5028499;28;20049;-75
2023/12/10 08:45:43;;;;;;;43.05;6.32;;;;;;;;;;5029281;28;20117;-76
2023/12/10 08:48:09;;;;;;;38.60;7.25;;;;;;;;;;5030403;28;20037;-76
2023/12/10 08:50:35;;;;;;;40.90;6.90;;;;;;;;;;5029288;28;20128;-77
2023/12/10 08:53:01;;;;;;;40.60;5.88;;;;;;;;;;5030513;28;20033;-75
2023/12/10 08:55:28;;;;;;;36.22;5.05;;;;;;;;;;5030248;28;20076;-77
2023/12/10 08:57:55;;;;;;;35.25;4.53;;;;;;;;;;5030428;28;20024;-76
2023/12/10 09:00:21;;;;;;;34.92;5.57;;;;;;;;;;4999120;28;20053;-76
2023/12/10 09:02:48;;;;;;;42.38;6.25;;;;;;;;;;5012254;28;20045;-76
2023/12/10 09:05:14;;;;;;;38.95;6.65;;;;;;;;;;5029260;28;20025;-76
2023/12/10 09:07:40;;;;;;;33.67;5.85;;;;;;;;;;5031096;28;20025;-77
2023/12/10 09:10:06;;;;;;;28.17;4.60;;;;;;;;;;5030368;28;20037;-79
2023/12/10 09:12:34;;;;;;;41.05;5.95;;;;;;;;;;5029349;28;20072;-76
2023/12/10 09:15:00;;;;;;;31.52;5.20;;;;;;;;;;5030364;28;20061;-77
2023/12/10 09:17:26;;;;;;;30.10;4.88;;;;;;;;;;5030027;28;20053;-75
2023/12/10 09:19:53;;;;;;;34.72;5.53;;;;;;;;;;5030507;28;20566;-77
2023/12/10 09:22:19;;;;;;;34.70;5.65;;;;;;;;;;5028060;28;20197;-76
2023/12/10 09:24:47;;;;;;;43.63;5.45;;;;;;;;;;5031041;28;20034;-77
2023/12/10 09:27:13;;;;;;;32.42;5.55;;;;;;;;;;5029956;28;20119;-76
2023/12/10 09:29:41;;;;;;;45.88;5.60;;;;;;;;;;5029393;28;20064;-77
2023/12/10 09:32:07;;;;;;;42.05;5.63;;;;;;;;;;5008875;28;20414;-78
2023/12/10 09:34:33;;;;;;;38.00;4.88;;;;;;;;;;5012723;28;20029;-77
2023/12/10 09:37:00;;;;;;;33.53;5.30;;;;;;;;;;5012431;28;20022;-77
2023/12/10 09:39:26;;;;;;;31.55;5.55;;;;;;;;;;5030939;28;20525;-76
2023/12/10 09:41:56;;;;;;;36.05;5.00;;;;;;;;;;5029432;28;20075;-77
2023/12/10 09:44:22;;;;;;;34.33;4.55;;;;;;;;;;5025449;28;20046;-77
2023/12/10 09:46:49;;;;;;;32.33;4.85;;;;;;;;;;5008301;28;20018;-75
2023/12/10 09:49:15;;;;;;;46.95;6.70;;;;;;;;;;5022785;28;20030;-76
2023/12/10 09:51:42;;;;;;;27.65;4.32;;;;;;;;;;5009467;28;20034;-78
2023/12/10 09:54:09;;;;;;;25.90;5.22;;;;;;;;;;5010113;28;20490;-76
2023/12/10 09:56:35;;;;;;;29.10;5.10;;;;;;;;;;5009801;28;20038;-76
2023/12/10 09:59:02;;;;;;;30.73;4.90;;;;;;;;;;5009452;28;20026;-76
2023/12/10 10:01:28;;;;;;;37.80;5.30;;;;;;;;;;5008827;28;20478;-76
2023/12/10 10:03:55;;;;;;;35.97;5.07;;;;;;;;;;5024930;28;20061;-78
2023/12/10 10:06:21;;;;;;;36.05;4.95;;;;;;;;;;5009989;28;20042;-76
2023/12/10 10:08:48;;;;;;;33.53;4.93;;;;;;;;;;5023361;28;20091;-76
2023/12/10 10:11:14;;;;;;;38.38;5.55;;;;;;;;;;5008879;28;20037;-76
2023/12/10 10:13:50;;;;;;;35.42;6.55;;;;;;;;;;5009486;28;20262;-77
2023/12/10 10:16:17;;;;;;;39.72;5.90;;;;;;;;;;5007471;28;20029;-77
2023/12/10 10:18:43;;;;;;;35.88;6.32;;;;;;;;;;5009509;28;20029;-77
2023/12/10 10:21:10;;;;;;;26.02;5.03;;;;;;;;;;5007710;28;20108;-76
2023/12/10 10:23:37;;;;;;;36.58;4.78;;;;;;;;;;5008285;28;20026;-76
2023/12/10 10:26:03;;;;;;;23.02;4.90;;;;;;;;;;5008813;28;20145;-77
2023/12/10 10:28:30;;;;;;;33.33;4.97;;;;;;;;;;5008002;28;20088;-76
2023/12/10 10:30:59;;;;;;;30.27;4.93;;;;;;;;;;5007064;28;20032;-76
2023/12/10 10:33:26;;;;;;;33.63;4.40;;;;;;;;;;5005273;28;20044;-75
2023/12/10 10:35:53;;;;;;;47.60;6.78;;;;;;;;;;5021561;28;20061;-76
2023/12/10 10:38:20;;;;;;;32.10;5.50;;;;;;;;;;5005191;28;20025;-76
2023/12/10 10:40:48;;;;;;;36.22;5.40;;;;;;;;;;5007387;28;20030;-77
2023/12/10 10:43:14;;;;;;;26.55;4.40;;;;;;;;;;5007513;28;20049;-77
2023/12/10 10:45:41;;;;;;;29.50;4.18;;;;;;;;;;5009037;28;20084;-77
2023/12/10 10:48:07;;;;;;;37.22;5.20;;;;;;;;;;5008233;28;20030;-75
2023/12/10 10:50:36;;;;;;;30.13;5.40;;;;;;;;;;5008145;28;20034;-76
2023/12/10 10:53:03;;;;;;;39.03;5.50;;;;;;;;;;5006025;28;20022;-75
2023/12/10 10:55:30;;;;;;;31.45;5.55;;;;;;;;;;5002920;28;20026;-75
2023/12/10 10:57:56;;;;;;;26.45;5.35;;;;;;;;;;5005948;28;20083;-76
2023/12/10 11:00:22;;;;;;;29.00;4.68;;;;;;;;;;5008915;28;20113;-77
2023/12/10 11:02:49;;;;;;;31.65;5.35;;;;;;;;;;5006452;28;20033;-76
2023/12/10 11:05:34;;;;;;;31.65;5.03;;;;;;;;;;5007241;28;20038;-74
2023/12/10 11:08:03;;;;;;;30.98;5.68;;;;;;;;;;5005230;28;20038;-77
2023/12/10 11:10:29;;;;;;;34.45;5.18;;;;;;;;;;5008143;28;20045;-77
2023/12/10 11:12:57;;;;;;;33.95;5.00;;;;;;;;;;5006240;28;20038;-76
2023/12/10 11:15:24;;;;;;;40.05;5.70;;;;;;;;;;5006636;28;20554;-76
2023/12/10 11:17:54;;;;;;;25.75;4.07;;;;;;;;;;5006760;28;20026;-78
2023/12/10 11:20:40;;;;;;;26.58;4.85;;;;;;;;;;5005942;28;20179;-77
2023/12/10 11:23:13;;;;;;;27.08;4.22;;;;;;;;;;5016851;28;20034;-77
2023/12/10 11:25:40;;;;;;;31.05;5.13;;;;;;;;;;5026963;28;20037;-78
2023/12/10 11:28:14;;;;;;;28.52;5.15;;;;;;;;;;5011039;28;20038;-77
2023/12/10 11:30:41;;;;;;;31.33;5.05;;;;;;;;;;5009955;28;20441;-75
2023/12/10 11:33:08;;;;;;;27.17;4.40;;;;;;;;;;5009626;28;20050;-75
2023/12/10 11:35:34;;;;;;;28.58;4.90;;;;;;;;;;5010815;28;20041;-76
2023/12/10 11:38:02;;;;;;;28.77;4.45;;;;;;;;;;5023979;28;20038;-76
2023/12/10 11:40:29;;;;;;;30.45;4.25;;;;;;;;;;5010173;28;20029;-76
2023/12/10 11:43:04;;;;;;;29.60;3.88;;;;;;;;;;5009732;28;20030;-77
2023/12/10 11:45:31;;;;;;;32.33;5.47;;;;;;;;;;5030741;28;20033;-74
2023/12/10 11:47:57;;;;;;;28.08;4.45;;;;;;;;;;5012306;28;20557;-75
2023/12/10 11:50:24;;;;;;;23.50;4.45;;;;;;;;;;5028544;28;20087;-75
2023/12/10 11:52:51;;;;;;;24.88;5.65;;;;;;;;;;5029580;28;20030;-82
2023/12/10 11:55:18;;;;;;;31.73;5.05;;;;;;;;;;5031691;28;20095;-76
2023/12/10 11:57:44;;;;;;;34.13;5.22;;;;;;;;;;5030840;28;20033;-75
2023/12/10 12:00:14;;;;;;;25.08;4.53;;;;;;;;;;5012308;28;20026;-77
2023/12/10 12:02:44;;;;;;;27.23;4.50;;;;;;;;;;5029844;28;20038;-76
2023/12/10 12:05:13;;;;;;;25.92;5.00;;;;;;;;;;5011141;28;20033;-75
2023/12/10 12:07:40;;;;;;;28.08;4.40;;;;;;;;;;5031098;28;20033;-76
2023/12/10 12:10:06;;;;;;;28.23;4.78;;;;;;;;;;5030640;28;20033;-76
2023/12/10 12:12:38;;;;;;;24.92;4.32;;;;;;;;;;5031743;28;20055;-75
2023/12/10 12:15:04;;;;;;;32.13;4.22;;;;;;;;;;5029468;28;20029;-76
2023/12/10 12:17:30;;;;;;;33.45;5.60;;;;;;;;;;5012960;28;20025;-76
2023/12/10 12:20:11;;;;;;;27.98;4.28;;;;;;;;;;5031048;28;20029;-76
2023/12/10 12:22:38;;;;;;;34.88;4.68;;;;;;;;;;5030772;28;20063;-77
2023/12/10 12:25:05;;;;;;;22.73;3.55;;;;;;;;;;5028582;28;20030;-75
2023/12/10 12:27:31;;;;;;;31.02;5.00;;;;;;;;;;5029923;28;20095;-76
2023/12/10 12:29:58;;;;;;;29.85;4.95;;;;;;;;;;5022410;28;20053;-76
2023/12/10 12:32:24;;;;;;;26.05;3.90;;;;;;;;;;5031365;28;20031;-76
2023/12/10 12:34:52;;;;;;;29.27;4.53;;;;;;;;;;5015772;28;20033;-78
2023/12/10 12:37:18;;;;;;;21.23;4.07;;;;;;;;;;5029438;28;20033;-76
2023/12/10 12:39:45;;;;;;;26.58;3.83;;;;;;;;;;5026166;28;20030;-77
2023/12/10 12:42:11;;;;;;;20.75;3.97;;;;;;;;;;5028254;28;20025;-76
2023/12/10 12:44:37;;;;;;;24.38;3.08;;;;;;;;;;5030083;28;20121;-77
2023/12/10 12:47:03;;;;;;;27.90;4.05;;;;;;;;;;5010538;28;20029;-76
2023/12/10 12:49:30;;;;;;;28.65;5.60;;;;;;;;;;5023737;28;20029;-76
2023/12/10 12:51:56;;;;;;;29.63;4.30;;;;;;;;;;4999429;28;20067;-77
2023/12/10 12:54:22;;;;;;;31.45;6.18;;;;;;;;;;5027718;28;20109;-76
2023/12/10 12:56:48;;;;;;;37.45;5.00;;;;;;;;;;5027025;28;20041;-77
2023/12/10 12:59:15;;;;;;;23.98;4.13;;;;;;;;;;5026338;28;20106;-75
2023/12/10 13:01:42;;;;;;;29.02;4.13;;;;;;;;;;5027086;28;20388;-76
2023/12/10 13:04:09;;;;;;;30.75;3.83;;;;;;;;;;5009160;28;20025;-77
2023/12/10 13:06:36;;;;;;;33.28;4.65;;;;;;;;;;5007772;28;20069;-76
2023/12/10 13:09:02;;;;;;;20.00;3.72;;;;;;;;;;5024650;28;20180;-77
2023/12/10 13:11:29;;;;;;;31.50;4.43;;;;;;;;;;5029371;28;20061;-77
2023/12/10 13:13:55;;;;;;;23.67;4.18;;;;;;;;;;5028345;28;20038;-77
2023/12/10 13:16:21;;;;;;;25.00;4.60;;;;;;;;;;5010306;28;20849;-76
2023/12/10 13:18:48;;;;;;;29.75;4.18;;;;;;;;;;5025904;28;20038;-75
2023/12/10 13:21:14;;;;;;;29.77;4.53;;;;;;;;;;5027903;28;20026;-75
2023/12/10 13:23:41;;;;;;;29.52;4.93;;;;;;;;;;5028763;28;20075;-76
2023/12/10 13:26:07;;;;;;;27.13;4.32;;;;;;;;;;5026725;28;20028;-75
2023/12/10 13:28:33;;;;;;;37.03;5.93;;;;;;;;;;5028056;28;20061;-76
2023/12/10 13:30:59;;;;;;;36.75;6.30;;;;;;;;;;5024914;28;20037;-76
2023/12/10 13:33:25;;;;;;;34.75;4.95;;;;;;;;;;5027933;28;21205;-77
2023/12/10 13:35:52;;;;;;;43.58;6.03;;;;;;;;;;5009808;28;20033;-75
2023/12/10 13:38:18;;;;;;;39.20;5.07;;;;;;;;;;5027257;28;20041;-76
2023/12/10 13:40:44;;;;;;;40.95;6.40;;;;;;;;;;5024812;28;20034;-75
2023/12/10 13:43:11;;;;;;;40.85;6.72;;;;;;;;;;5008909;28;20198;-76
2023/12/10 13:45:38;;;;;;;53.33;9.38;;;;;;;;;;5027697;28;20045;-75
2023/12/10 13:48:04;;;;;;;52.72;8.15;;;;;;;;;;5025412;28;20120;-76
2023/12/10 13:50:30;;;;;;;46.80;7.07;;;;;;;;;;5025111;28;20033;-76
2023/12/10 13:52:58;;;;;;;42.97;6.75;;;;;;;;;;5026848;28;20099;-77
2023/12/10 13:55:26;;;;;;;44.33;6.68;;;;;;;;;;5009728;28;20045;-76
2023/12/10 13:57:52;;;;;;;60.95;7.82;;;;;;;;;;5027034;28;20264;-77
2023/12/10 14:00:18;;;;;;;50.72;7.15;;;;;;;;;;5025382;28;20434;-76
2023/12/10 14:02:44;;;;;;;46.47;7.20;;;;;;;;;;5028320;28;20083;-74
2023/12/10 14:05:14;;;;;;;50.63;7.45;;;;;;;;;;5025885;28;20111;-75
2023/12/10 14:07:43;;;;;;;58.97;8.73;;;;;;;;;;5008400;28;20087;-76
2023/12/10 14:10:10;;;;;;;52.17;8.02;;;;;;;;;;5023961;28;20102;-77
2023/12/10 14:12:36;;;;;;;48.20;7.38;;;;;;;;;;5009356;28;20122;-75
2023/12/10 14:15:03;;;;;;;50.05;7.15;;;;;;;;;;5026199;28;20029;-75
2023/12/10 14:17:30;;;;;;;59.15;9.50;;;;;;;;;;5024154;28;20037;-75
2023/12/10 14:19:56;;;;;;;61.28;9.82;;;;;;;;;;5008472;28;20137;-76
2023/12/10 14:22:25;;;;;;;53.75;9.32;;;;;;;;;;5025934;28;20028;-77
2023/12/10 14:24:51;;;;;;;51.67;7.97;;;;;;;;;;5021688;28;20041;-76
2023/12/10 14:27:17;;;;;;;54.13;8.32;;;;;;;;;;5008355;28;20133;-77